x

Folly Island, Sc (fbis1) Weather Station

4:00pm - Fri 23rd Jun 2017 All times are EDT. -4 hours from GMT.

  • Wind
    18mph, 21mph gusts
  • Air Temp 82°f
  • Sea Pressure 1016.7mb
  • Folly Island, Sc
  • Folly Island, Sc

More Historic Weather Station data

Upgrade to MSW Pro to gain access to the past 30 days of data for over 8000 Wavebouys and Weather Stations around the globe.

Join Pro

Comparision Forecast

View Surf forecast
   
Fri 06/23 4:00pm 18 21 mph 1016.7mb 82f
3:00pm 16 20 mph 1017.4mb 82f
2:00pm 20 22 mph 1017.8mb 82f
1:00pm 20 23 mph 1018.1mb 82f
12:00pm 20 23 mph 1018.3mb 82f
11:00am 20 22 mph 1018.5mb 82f
10:00am 20 22 mph 1018.6mb 81f
9:00am 18 21 mph 1018.6mb 81f
8:00am 18 21 mph 1018.2mb 81f
7:00am 17 21 mph 1018mb 81f
6:00am 20 21 mph 1017.9mb 81f
5:00am 18 22 mph 1017.5mb 81f
4:00am 16 22 mph 1017.6mb 81f
3:00am 18 21 mph 1018.1mb 81f
2:00am 17 20 mph 1018.7mb 81f
1:00am 16 20 mph 1019.1mb 81f
12:00am 16 18 mph 1019.4mb 81f
Thu 06/22 11:00pm 14 15 mph 1019.5mb 81f
10:00pm 11 14 mph 1019.1mb 82f
9:00pm 11 14 mph 1019.1mb 82f
8:00pm 11 13 mph 1019.2mb 82f
7:00pm 10 13 mph 1018.8mb 82f
6:00pm 10 14 mph 1018.9mb 82f
5:00pm 14 15 mph 1018.4mb 82f
4:00pm 14 15 mph 1019.1mb 82f
3:00pm 13 15 mph 1019.2mb 82f
2:00pm 10 13 mph 1019.7mb 83f
1:00pm 10 11 mph 1020.2mb 83f
12:00pm 10 13 mph 1020.7mb 83f
11:00am 11 11 mph 1020.8mb 82f
10:00am 9 11 mph 1020.5mb 82f
9:00am 9 10 mph 1020.3mb 82f
8:00am 10 11 mph 1020.1mb 81f
7:00am 9 11 mph 1019.5mb 81f
6:00am 11 13 mph 1019mb 81f
5:00am 11 13 mph 1019mb 81f
4:00am 11 14 mph 1018.9mb 81f
3:00am 11 14 mph 1019.3mb 81f
2:00am 13 15 mph 1019.8mb 81f
1:00am 8 9 mph 1020mb 81f
12:00am 11 13 mph 1020.4mb 81f
Wed 06/21 11:00pm 8 10 mph 1020.4mb 81f
10:00pm 7 8 mph 1020.1mb 81f
9:00pm 8 8 mph 1019.7mb 81f
8:00pm 9 10 mph 1019.4mb 80f
7:00pm 8 10 mph 1019.2mb 80f
6:00pm 10 11 mph 1018.8mb 80f
5:00pm 13 14 mph 1019.2mb 79f
4:00pm 11 13 mph 1019.4mb 79f
3:00pm 14 15 mph 1019.4mb 78f
2:00pm 8 9 mph 1020mb 79f
1:00pm 8 10 mph 1020.3mb 78f
12:00pm  -  3 mph 1020.2mb 81f
11:00am 2 6 mph 1020.1mb 80f
10:00am  -  1 mph 1019.8mb 80f
9:00am 9 10 mph 1019.6mb 81f
8:00am 8 10 mph 1019.4mb 81f
7:00am 10 13 mph 1019mb 81f
6:00am 13 14 mph 1018.8mb 81f
5:00am 7 9 mph 1018.6mb 77f
4:00am  -  1 mph 1018.7mb 77f
3:00am 3 6 mph 1019mb 76f
2:00am 8 9 mph 1019.1mb 77f
1:00am 8 9 mph 1019.8mb 78f
12:00am 10 11 mph 1020.3mb 78f
Tue 06/20 11:00pm 8 9 mph 1020mb 78f
10:00pm 7 8 mph 1019.9mb 78f
9:00pm 6 7 mph 1019.4mb 77f
8:00pm 5 7 mph 1018.9mb 77f
7:00pm 3 5 mph 1018.8mb 78f
6:00pm 3 5 mph 1019.1mb 78f
5:00pm 5 7 mph 1018.9mb 79f
4:00pm 5 6 mph 1018.8mb 78f
3:00pm 10 14 mph 1019mb 78f
2:00pm 5 6 mph 1019.2mb 78f
1:00pm 7 9 mph 1019.5mb 79f
12:00pm 8 9 mph 1019.8mb 79f
11:00am 8 9 mph 1019.8mb 81f
10:00am 8 10 mph 1019.8mb 82f
9:00am 8 9 mph 1019.5mb 82f
8:00am 5 6 mph 1019.3mb 81f
7:00am 3 5 mph 1018.9mb 79f
6:00am 2 5 mph 1018.5mb 79f
5:00am 3 6 mph 1018.2mb 79f
4:00am 5 7 mph 1017.9mb 80f
3:00am 17 20 mph 1018mb 81f
2:00am 18 21 mph 1018.3mb 81f
1:00am 16 18 mph 1018.5mb 82f
12:00am 23 25 mph 1018.5mb 82f
Mon 06/19 11:00pm 16 20 mph 1019mb 82f
10:00pm 16 20 mph 1018.5mb 82f